createdAt,value
2023-03-26T00:00:42.973Z,91576.53
2023-03-26T00:03:18.040Z,91576.25
2023-03-26T00:06:02.578Z,91595.56
2023-03-26T00:08:36.279Z,91582.13
2023-03-26T00:11:11.646Z,91588.91
2023-03-26T00:13:44.661Z,91583.97
2023-03-26T00:16:18.977Z,91575.97
2023-03-26T00:18:52.736Z,91573.59
2023-03-26T00:21:27.161Z,91569.03
2023-03-26T00:24:03.635Z,91566.63
2023-03-26T00:26:37.808Z,91557.00
2023-03-26T00:29:12.761Z,91548.06
2023-03-26T00:31:45.605Z,91541.78
2023-03-26T00:34:17.961Z,91526.97
2023-03-26T00:36:53.646Z,91522.41
2023-03-26T00:39:26.665Z,91526.56
2023-03-26T00:42:06.122Z,91530.75
2023-03-26T00:44:38.470Z,91527.59
2023-03-26T00:47:10.821Z,91528.66
2023-03-26T00:49:46.107Z,91538.78
2023-03-26T00:52:18.906Z,91535.28
2023-03-26T00:54:51.970Z,91536.47
2023-03-26T00:57:35.616Z,91540.97
2023-03-26T01:00:16.099Z,91546.34
2023-03-26T01:02:48.565Z,91534.09
2023-03-26T01:05:45.199Z,91536.69
2023-03-26T01:08:26.491Z,91543.25
2023-03-26T01:11:02.502Z,91542.97
2023-03-26T01:13:37.715Z,91538.53
2023-03-26T01:16:24.724Z,91533.63
2023-03-26T01:18:58.142Z,91535.78
2023-03-26T01:21:31.050Z,91541.91
2023-03-26T01:24:06.015Z,91540.88
2023-03-26T01:27:09.497Z,91545.59
2023-03-26T01:29:46.301Z,91544.50
2023-03-26T01:32:30.204Z,91540.53
2023-03-26T01:35:18.304Z,91542.59
2023-03-26T01:38:01.562Z,91539.25
2023-03-26T01:40:41.954Z,91556.13
2023-03-26T01:43:25.767Z,91554.13
2023-03-26T01:46:01.553Z,91553.09
2023-03-26T01:48:36.404Z,91550.69
2023-03-26T01:51:10.349Z,91538.28
2023-03-26T01:53:46.325Z,91548.88
2023-03-26T01:56:25.369Z,91548.78
2023-03-26T01:59:09.001Z,91564.00
2023-03-26T02:01:47.348Z,91554.78
2023-03-26T02:04:25.660Z,91568.88
2023-03-26T02:07:05.022Z,91574.84
2023-03-26T02:09:45.154Z,91561.69
2023-03-26T02:12:21.493Z,91574.88
2023-03-26T02:14:53.861Z,91560.19
2023-03-26T02:17:29.407Z,91555.16
2023-03-26T02:20:10.086Z,91550.63
2023-03-26T02:22:45.153Z,91551.78
2023-03-26T02:25:19.948Z,91555.75
2023-03-26T02:27:54.186Z,91554.09
2023-03-26T02:30:28.797Z,91562.19
2023-03-26T02:33:03.677Z,91567.09
2023-03-26T02:35:45.193Z,91574.88
2023-03-26T02:38:18.761Z,91577.03
2023-03-26T02:40:51.417Z,91588.47
2023-03-26T02:43:25.849Z,91593.19
2023-03-26T02:45:58.663Z,91592.72
2023-03-26T02:48:50.446Z,91600.78
2023-03-26T02:51:29.078Z,91607.63
2023-03-26T02:54:10.143Z,91602.63
2023-03-26T02:57:00.489Z,91596.38
2023-03-26T02:59:52.539Z,91602.06
2023-03-26T03:02:48.219Z,91606.31
2023-03-26T03:05:37.340Z,91609.59
2023-03-26T03:08:33.342Z,91606.97
2023-03-26T03:11:35.770Z,91617.25
2023-03-26T03:14:08.110Z,91622.53
2023-03-26T03:16:41.685Z,91616.97
2023-03-26T03:19:15.931Z,91627.53
2023-03-26T03:21:48.268Z,91621.88
2023-03-26T03:24:20.625Z,91629.38
2023-03-26T03:26:56.098Z,91640.03
2023-03-26T03:29:38.423Z,91623.47
2023-03-26T03:32:31.365Z,91642.97
2023-03-26T03:35:08.298Z,91631.69
2023-03-26T03:37:41.228Z,91634.03
2023-03-26T03:40:14.652Z,91628.84
2023-03-26T03:42:47.465Z,91616.19
2023-03-26T03:45:27.298Z,91623.50
2023-03-26T03:48:27.071Z,91633.78
2023-03-26T03:50:59.437Z,91626.00
2023-03-26T03:53:36.373Z,91630.91
2023-03-26T03:56:09.949Z,91638.13
2023-03-26T03:59:05.130Z,91627.25
2023-03-26T04:01:42.480Z,91616.56
2023-03-26T04:04:23.907Z,91607.72
2023-03-26T04:07:07.855Z,91614.94
2023-03-26T04:10:09.844Z,91629.25
2023-03-26T04:13:00.901Z,91642.66
2023-03-26T04:15:51.790Z,91642.59
2023-03-26T04:18:25.868Z,91648.97
2023-03-26T04:21:02.083Z,91658.53
2023-03-26T04:23:36.475Z,91662.38
2023-03-26T04:26:19.121Z,91667.84
2023-03-26T04:29:16.194Z,91672.00
2023-03-26T04:31:50.614Z,91677.13
2023-03-26T04:34:24.617Z,91668.50
2023-03-26T04:37:24.178Z,91692.84
2023-03-26T04:40:08.706Z,91704.88
2023-03-26T04:42:45.338Z,91716.91
2023-03-26T04:45:24.684Z,91705.59
2023-03-26T04:48:01.990Z,91719.78
2023-03-26T04:50:34.652Z,91713.31
2023-03-26T04:53:12.859Z,91727.28
2023-03-26T04:56:30.360Z,91715.34
2023-03-26T04:59:25.447Z,91716.66
2023-03-26T05:02:00.845Z,91721.78
2023-03-26T05:04:39.241Z,91720.66
2023-03-26T05:07:16.359Z,91713.53
2023-03-26T05:09:53.553Z,91717.41
2023-03-26T05:12:38.900Z,91717.94
2023-03-26T05:15:15.817Z,91727.09
2023-03-26T05:18:03.416Z,91719.13
2023-03-26T05:20:47.277Z,91727.63
2023-03-26T05:23:19.863Z,91731.19
2023-03-26T05:26:01.685Z,91731.88
2023-03-26T05:28:34.180Z,91726.91
2023-03-26T05:31:14.822Z,91740.88
2023-03-26T05:33:51.548Z,91735.69
2023-03-26T05:36:24.305Z,91745.78
2023-03-26T05:39:08.758Z,91733.25
2023-03-26T05:42:07.013Z,91736.16
2023-03-26T05:44:54.989Z,91734.69
2023-03-26T05:47:32.184Z,91737.00
2023-03-26T05:50:06.794Z,91740.09
2023-03-26T05:52:40.105Z,91735.00
2023-03-26T05:55:32.690Z,91730.31
2023-03-26T05:58:24.682Z,91724.47
2023-03-26T06:01:29.415Z,91722.94
2023-03-26T06:04:20.837Z,91729.66
2023-03-26T06:07:09.382Z,91730.13
2023-03-26T06:09:44.075Z,91732.75
2023-03-26T06:12:16.583Z,91734.69
2023-03-26T06:14:50.650Z,91720.06
2023-03-26T06:17:28.475Z,91723.25
2023-03-26T06:20:12.207Z,91720.03
2023-03-26T06:22:47.171Z,91718.34
2023-03-26T06:25:25.361Z,91723.94
2023-03-26T06:28:09.986Z,91727.53
2023-03-26T06:31:10.317Z,91723.97
2023-03-26T06:33:48.275Z,91722.25
2023-03-26T06:36:20.701Z,91720.22
2023-03-26T06:38:55.704Z,91712.13
2023-03-26T06:41:34.572Z,91715.88
2023-03-26T06:44:29.195Z,91727.59
2023-03-26T06:47:20.608Z,91717.13
2023-03-26T06:49:55.869Z,91719.56
2023-03-26T06:52:44.682Z,91728.47
2023-03-26T06:55:39.933Z,91737.09
2023-03-26T06:58:26.332Z,91736.97
2023-03-26T07:01:02.020Z,91744.44
2023-03-26T07:03:53.832Z,91736.59
2023-03-26T07:06:45.256Z,91738.47
2023-03-26T07:09:36.357Z,91738.84
2023-03-26T07:12:27.575Z,91741.09
2023-03-26T07:15:24.094Z,91740.69
2023-03-26T07:18:19.368Z,91736.19
2023-03-26T07:20:54.012Z,91737.50
2023-03-26T07:23:28.568Z,91738.88
2023-03-26T07:26:25.896Z,91737.53
2023-03-26T07:29:15.717Z,91730.63
2023-03-26T07:32:18.465Z,91728.66
2023-03-26T07:35:25.948Z,91728.81
2023-03-26T07:38:33.077Z,91729.09
2023-03-26T07:41:39.923Z,91724.34
2023-03-26T07:44:50.433Z,91722.47
2023-03-26T07:47:44.289Z,91723.81
2023-03-26T07:50:18.981Z,91721.94
2023-03-26T07:53:10.773Z,91720.66
2023-03-26T07:56:11.530Z,91725.19
2023-03-26T07:59:13.681Z,91718.75
2023-03-26T08:02:40.882Z,91713.91
2023-03-26T08:05:34.710Z,91700.09
2023-03-26T08:08:36.753Z,91712.44
2023-03-26T08:11:39.194Z,91712.31
2023-03-26T08:14:24.174Z,91702.66
2023-03-26T08:17:06.085Z,91713.75
2023-03-26T08:19:58.254Z,91708.84
2023-03-26T08:22:36.037Z,91717.84
2023-03-26T08:25:27.224Z,91717.50
2023-03-26T08:28:26.079Z,91698.22
2023-03-26T08:31:02.160Z,91715.84
2023-03-26T08:33:37.755Z,91702.47
2023-03-26T08:36:10.828Z,91713.16
2023-03-26T08:38:44.082Z,91708.41
2023-03-26T08:41:46.913Z,91702.03
2023-03-26T08:44:58.680Z,91716.44
2023-03-26T08:48:07.338Z,91713.06
2023-03-26T08:51:16.413Z,91721.94
2023-03-26T08:54:18.772Z,91724.28
2023-03-26T08:57:01.378Z,91718.34
2023-03-26T09:00:01.316Z,91723.44
2023-03-26T09:03:14.448Z,91729.44
2023-03-26T09:06:24.836Z,91717.78
2023-03-26T09:09:35.656Z,91719.31
2023-03-26T09:12:36.355Z,91718.91
2023-03-26T09:15:59.774Z,91708.69
2023-03-26T09:19:08.040Z,91708.53
2023-03-26T09:22:07.276Z,91705.63
2023-03-26T09:25:13.244Z,91698.56
2023-03-26T09:28:06.708Z,91690.00
2023-03-26T09:31:03.171Z,91694.47
2023-03-26T09:33:55.699Z,91696.97
2023-03-26T09:36:54.162Z,91697.19
2023-03-26T09:39:37.181Z,91692.47
2023-03-26T09:42:21.280Z,91692.25
2023-03-26T09:45:31.672Z,91690.03
2023-03-26T09:48:28.514Z,91692.03
2023-03-26T09:51:12.929Z,91693.47
2023-03-26T09:54:02.910Z,91689.97
2023-03-26T09:56:46.813Z,91690.84
2023-03-26T09:59:36.994Z,91695.41
2023-03-26T10:02:45.877Z,91689.84
2023-03-26T10:05:44.309Z,91676.28
2023-03-26T10:08:35.132Z,91672.00
2023-03-26T10:11:17.201Z,91672.47
2023-03-26T10:14:04.941Z,91665.50
2023-03-26T10:16:47.463Z,91652.66
2023-03-26T10:19:31.107Z,91650.69
2023-03-26T10:22:13.930Z,91645.06
2023-03-26T10:25:13.001Z,91641.72
2023-03-26T10:28:00.128Z,91642.97
2023-03-26T10:31:00.467Z,91634.78
2023-03-26T10:33:41.845Z,91632.28
2023-03-26T10:36:28.896Z,91631.81
2023-03-26T10:39:37.111Z,91618.63
2023-03-26T10:42:40.092Z,91622.63
2023-03-26T10:45:24.876Z,91614.78
2023-03-26T10:48:16.556Z,91611.69
2023-03-26T10:50:59.313Z,91610.09
2023-03-26T10:53:37.151Z,91606.34
2023-03-26T10:56:23.275Z,91613.72
2023-03-26T10:58:57.016Z,91610.22
2023-03-26T11:01:44.773Z,91604.75
2023-03-26T11:04:41.174Z,91610.84
2023-03-26T11:07:20.754Z,91617.56
2023-03-26T11:10:00.199Z,91608.53
2023-03-26T11:12:43.538Z,91602.88
2023-03-26T11:15:23.880Z,91586.16
2023-03-26T11:18:07.793Z,91595.94
2023-03-26T11:20:45.842Z,91591.38
2023-03-26T11:23:30.684Z,91585.22
2023-03-26T11:26:12.253Z,91577.53
2023-03-26T11:29:31.230Z,91574.56
2023-03-26T11:32:10.072Z,91578.47
2023-03-26T11:34:49.082Z,91578.94
2023-03-26T11:37:29.614Z,91567.84
2023-03-26T11:40:10.827Z,91564.69
2023-03-26T11:42:44.612Z,91538.97
2023-03-26T11:45:21.959Z,91550.00
2023-03-26T11:48:01.615Z,91531.84
2023-03-26T11:50:38.061Z,91535.22
2023-03-26T11:53:12.962Z,91529.88
2023-03-26T11:55:51.810Z,91522.22
2023-03-26T11:58:30.360Z,91514.41
2023-03-26T12:01:13.964Z,91513.16
2023-03-26T12:03:58.336Z,91509.34
2023-03-26T12:06:32.290Z,91511.59
2023-03-26T12:09:14.736Z,91501.63
2023-03-26T12:11:48.955Z,91499.28
2023-03-26T12:14:24.610Z,91499.66
2023-03-26T12:16:58.818Z,91496.69
2023-03-26T12:19:38.665Z,91478.78
2023-03-26T12:22:29.305Z,91476.91
2023-03-26T12:25:15.384Z,91483.28
2023-03-26T12:27:49.682Z,91476.94
2023-03-26T12:30:25.150Z,91471.56
2023-03-26T12:33:00.264Z,91468.69
2023-03-26T12:35:35.674Z,91455.91
2023-03-26T12:38:21.144Z,91446.38
2023-03-26T12:44:44.759Z,91461.63
2023-03-26T12:44:50.229Z,91454.75
2023-03-26T12:47:58.452Z,91458.44
2023-03-26T12:50:14.193Z,91448.28
2023-03-26T12:53:05.484Z,91452.53
2023-03-26T12:55:58.871Z,91449.16
2023-03-26T12:58:52.809Z,91440.91
2023-03-26T13:01:33.653Z,91452.06
2023-03-26T13:04:27.988Z,91446.06
2023-03-26T13:07:10.093Z,91451.22
2023-03-26T13:09:56.364Z,91448.72
2023-03-26T13:12:40.312Z,91437.88
2023-03-26T13:15:25.934Z,91442.00
2023-03-26T13:18:15.082Z,91443.09
2023-03-26T13:20:50.915Z,91438.59
2023-03-26T13:23:38.598Z,91434.56
2023-03-26T13:26:21.890Z,91422.28
2023-03-26T13:29:06.223Z,91436.78
2023-03-26T13:31:48.706Z,91434.78
2023-03-26T13:34:33.407Z,91437.41
2023-03-26T13:37:14.071Z,91412.44
2023-03-26T13:39:59.604Z,91427.94
2023-03-26T13:42:42.772Z,91427.69
2023-03-26T13:45:42.637Z,91426.84
2023-03-26T13:48:21.157Z,91418.38
2023-03-26T13:51:01.086Z,91422.28
2023-03-26T13:53:41.296Z,91423.41
2023-03-26T13:56:19.136Z,91425.16
2023-03-26T13:58:58.109Z,91424.69
2023-03-26T14:01:34.092Z,91418.13
2023-03-26T14:04:17.091Z,91421.69
2023-03-26T14:06:56.592Z,91410.50
2023-03-26T14:09:34.116Z,91400.88
2023-03-26T14:12:21.954Z,91407.88
2023-03-26T14:15:00.022Z,91400.16
2023-03-26T14:17:39.179Z,91396.44
2023-03-26T14:20:39.228Z,91397.38
2023-03-26T14:23:52.982Z,91394.56
2023-03-26T14:26:46.385Z,91402.84
2023-03-26T14:29:56.607Z,91391.00
2023-03-26T14:32:45.170Z,91394.44
2023-03-26T14:35:30.896Z,91398.25
2023-03-26T14:38:29.049Z,91384.41
2023-03-26T14:41:21.534Z,91389.72
2023-03-26T14:44:48.184Z,91381.38
2023-03-26T14:47:23.605Z,91380.75
2023-03-26T14:50:30.808Z,91382.97
2023-03-26T14:53:11.173Z,91380.19
2023-03-26T14:56:01.993Z,91380.78
2023-03-26T14:59:22.176Z,91384.09
2023-03-26T15:02:37.458Z,91370.66
2023-03-26T15:05:45.088Z,91383.28
2023-03-26T15:08:49.181Z,91387.97
2023-03-26T15:11:29.807Z,91367.25
2023-03-26T15:14:23.178Z,91378.50
2023-03-26T15:17:29.209Z,91390.75
2023-03-26T15:20:47.925Z,91387.72
2023-03-26T15:23:52.640Z,91396.38
2023-03-26T15:27:04.703Z,91394.84
2023-03-26T15:30:19.611Z,91391.88
2023-03-26T15:33:33.568Z,91394.78
2023-03-26T15:36:38.495Z,91395.84
2023-03-26T15:39:43.917Z,91400.19
2023-03-26T15:42:44.897Z,91395.78
2023-03-26T15:45:33.218Z,91393.41
2023-03-26T15:48:19.558Z,91386.28
2023-03-26T15:50:57.665Z,91375.91
2023-03-26T15:53:39.102Z,91387.75
2023-03-26T15:56:26.853Z,91387.94
2023-03-26T15:59:10.889Z,91393.34
2023-03-26T16:02:01.628Z,91390.59
2023-03-26T16:04:50.346Z,91393.16
2023-03-26T16:07:40.789Z,91390.09
2023-03-26T16:10:22.986Z,91397.31
2023-03-26T16:13:22.701Z,91403.16
2023-03-26T16:15:57.207Z,91403.75
2023-03-26T16:18:35.133Z,91405.34
2023-03-26T16:21:47.199Z,91409.41
2023-03-26T16:24:25.744Z,91414.13
2023-03-26T16:27:08.524Z,91413.72
2023-03-26T16:30:21.011Z,91419.38
2023-03-26T16:32:57.860Z,91418.53
2023-03-26T16:36:01.858Z,91418.44
2023-03-26T16:38:49.817Z,91417.94
2023-03-26T16:41:26.037Z,91412.59
2023-03-26T16:44:15.922Z,91415.66
2023-03-26T16:46:57.268Z,91418.28
2023-03-26T16:49:43.196Z,91418.94
2023-03-26T16:52:22.931Z,91412.75
2023-03-26T16:55:06.506Z,91415.53
2023-03-26T16:57:47.785Z,91410.16
2023-03-26T17:00:48.031Z,91411.75
2023-03-26T17:03:38.096Z,91419.34
2023-03-26T17:06:26.845Z,91425.06
2023-03-26T17:09:14.631Z,91425.63
2023-03-26T17:11:57.417Z,91422.81
2023-03-26T17:14:38.285Z,91416.84
2023-03-26T17:17:29.930Z,91422.34
2023-03-26T17:20:11.407Z,91420.94
2023-03-26T17:22:47.491Z,91428.66
2023-03-26T17:25:45.757Z,91432.16
2023-03-26T17:28:41.197Z,91428.13
2023-03-26T17:34:44.788Z,91430.94
2023-03-26T17:37:47.190Z,91432.47
2023-03-26T17:40:30.448Z,91426.00
2023-03-26T17:43:09.008Z,91425.22
2023-03-26T17:45:43.091Z,91421.97
2023-03-26T17:48:21.073Z,91413.53
2023-03-26T17:50:57.854Z,91419.97
2023-03-26T17:53:33.853Z,91419.84
2023-03-26T17:56:14.717Z,91417.66
2023-03-26T17:58:51.886Z,91419.41
2023-03-26T18:01:29.950Z,91411.44
2023-03-26T18:04:05.630Z,91410.09
2023-03-26T18:06:56.719Z,91411.38
2023-03-26T18:09:42.998Z,91405.91
2023-03-26T18:12:42.506Z,91410.59
2023-03-26T18:15:42.750Z,91415.69
2023-03-26T18:18:20.197Z,91409.31
2023-03-26T18:20:54.329Z,91406.75
2023-03-26T18:23:34.832Z,91403.25
2023-03-26T18:26:13.597Z,91412.06
2023-03-26T18:28:52.226Z,91393.09
2023-03-26T18:31:26.657Z,91401.91
2023-03-26T18:34:10.641Z,91398.72
2023-03-26T18:36:42.987Z,91396.50
2023-03-26T18:39:16.260Z,91397.75
2023-03-26T18:41:49.295Z,91399.78
2023-03-26T18:44:21.911Z,91400.09
2023-03-26T18:46:54.648Z,91395.38
2023-03-26T18:49:29.067Z,91390.94
2023-03-26T18:52:01.965Z,91384.50
2023-03-26T18:54:35.864Z,91376.56
2023-03-26T18:57:15.291Z,91375.03
2023-03-26T18:59:50.511Z,91369.84
2023-03-26T19:02:25.305Z,91372.06
2023-03-26T19:04:58.098Z,91367.34
2023-03-26T19:07:30.728Z,91364.66
2023-03-26T19:10:03.706Z,91355.47
2023-03-26T19:12:38.521Z,91358.38
2023-03-26T19:15:14.188Z,91347.22
2023-03-26T19:17:50.702Z,91350.44
2023-03-26T19:20:25.758Z,91348.78
2023-03-26T19:22:58.691Z,91342.66
2023-03-26T19:25:36.090Z,91339.28
2023-03-26T19:28:16.400Z,91335.66
2023-03-26T19:30:53.353Z,91331.97
2023-03-26T19:33:33.521Z,91328.00
2023-03-26T19:36:17.793Z,91330.00
2023-03-26T19:38:52.229Z,91322.03
2023-03-26T19:41:31.788Z,91318.34
2023-03-26T19:44:19.028Z,91315.91
2023-03-26T19:46:53.390Z,91315.63
2023-03-26T19:49:29.634Z,91317.16
2023-03-26T19:52:12.731Z,91311.19
2023-03-26T19:55:00.118Z,91302.47
2023-03-26T19:57:35.638Z,91306.56
2023-03-26T20:00:13.404Z,91304.31
2023-03-26T20:02:46.510Z,91299.41
2023-03-26T20:05:22.678Z,91297.69
2023-03-26T20:07:57.864Z,91292.16
2023-03-26T20:10:30.321Z,91299.38
2023-03-26T20:13:02.826Z,91295.50
2023-03-26T20:15:38.259Z,91281.56
2023-03-26T20:18:11.632Z,91286.63
2023-03-26T20:20:44.303Z,91283.88
2023-03-26T20:23:16.978Z,91283.16
2023-03-26T20:25:53.134Z,91273.84
2023-03-26T20:28:25.842Z,91273.78
2023-03-26T20:30:59.256Z,91278.22
2023-03-26T20:33:32.192Z,91275.50
2023-03-26T20:36:09.432Z,91266.75
2023-03-26T20:38:42.489Z,91274.50
2023-03-26T20:41:17.751Z,91267.44
2023-03-26T20:43:50.597Z,91270.28
2023-03-26T20:46:31.151Z,91267.69
2023-03-26T20:49:05.936Z,91271.00
2023-03-26T20:51:41.023Z,91263.81
2023-03-26T20:54:16.892Z,91271.91
2023-03-26T20:56:49.696Z,91273.25
2023-03-26T20:59:25.469Z,91266.09
2023-03-26T21:01:59.608Z,91264.19
2023-03-26T21:04:31.985Z,91260.19
2023-03-26T21:07:14.984Z,91252.63
2023-03-26T21:09:50.370Z,91251.06
2023-03-26T21:12:29.343Z,91250.00
2023-03-26T21:15:07.334Z,91237.44
2023-03-26T21:17:44.525Z,91244.75
2023-03-26T21:20:18.707Z,91248.69
2023-03-26T21:22:58.016Z,91246.59
2023-03-26T21:25:38.897Z,91246.59
2023-03-26T21:28:35.482Z,91237.75
2023-03-26T21:31:17.753Z,91239.22
2023-03-26T21:33:51.686Z,91235.88
2023-03-26T21:36:24.783Z,91232.31
2023-03-26T21:38:58.067Z,91230.13
2023-03-26T21:41:37.820Z,91222.56
2023-03-26T21:44:10.280Z,91213.75
2023-03-26T21:46:44.855Z,91206.38
2023-03-26T21:49:18.722Z,91197.63
2023-03-26T21:51:51.516Z,91192.63
2023-03-26T21:54:26.498Z,91188.50
2023-03-26T21:57:15.532Z,91180.72
2023-03-26T21:59:57.779Z,91178.75
2023-03-26T22:02:37.414Z,91175.19
2023-03-26T22:05:14.289Z,91165.28
2023-03-26T22:07:54.316Z,91172.13
2023-03-26T22:10:26.740Z,91181.84
2023-03-26T22:12:59.635Z,91179.97
2023-03-26T22:15:33.337Z,91166.50
2023-03-26T22:18:06.539Z,91166.81
2023-03-26T22:20:40.636Z,91163.75
2023-03-26T22:23:12.999Z,91157.91
2023-03-26T22:25:45.684Z,91153.31
2023-03-26T22:28:18.917Z,91141.88
2023-03-26T22:30:51.505Z,91135.66
2023-03-26T22:33:23.941Z,91134.25
2023-03-26T22:35:57.450Z,91122.53
2023-03-26T22:38:30.001Z,91126.09
2023-03-26T22:41:02.773Z,91127.06
2023-03-26T22:43:35.185Z,91114.22
2023-03-26T22:46:07.678Z,91102.63
2023-03-26T22:48:40.062Z,91105.53
2023-03-26T22:51:13.206Z,91106.00
2023-03-26T22:53:45.762Z,91100.03
2023-03-26T22:56:18.270Z,91097.16
2023-03-26T22:58:50.714Z,91094.03
2023-03-26T23:01:24.166Z,91088.28
2023-03-26T23:03:56.969Z,91101.34
2023-03-26T23:06:30.889Z,91083.78
2023-03-26T23:09:06.341Z,91082.63
2023-03-26T23:11:39.306Z,91089.06
2023-03-26T23:14:11.673Z,91082.63
2023-03-26T23:16:44.974Z,91083.88
2023-03-26T23:19:17.314Z,91078.72
2023-03-26T23:21:50.882Z,91072.75
2023-03-26T23:24:25.543Z,91065.28
2023-03-26T23:26:58.120Z,91068.84
2023-03-26T23:29:31.096Z,91065.75
2023-03-26T23:32:04.172Z,91070.94
2023-03-26T23:34:56.366Z,91059.94
2023-03-26T23:37:34.091Z,91056.47
2023-03-26T23:40:09.407Z,91056.09
2023-03-26T23:42:41.772Z,91049.84
2023-03-26T23:45:14.086Z,91049.84
2023-03-26T23:47:46.659Z,91040.44
2023-03-26T23:50:19.952Z,91037.47
2023-03-26T23:52:53.362Z,91029.53
2023-03-26T23:55:26.701Z,91027.72
2023-03-26T23:57:58.982Z,91016.00
